createdAt,value
2019-03-15T00:01:39.968Z,7.33
2019-03-15T00:05:45.276Z,7.49
2019-03-15T00:09:50.482Z,7.40
2019-03-15T00:13:55.679Z,7.44
2019-03-15T00:18:01.877Z,7.42
2019-03-15T00:22:07.075Z,7.38
2019-03-15T00:26:12.205Z,7.32
2019-03-15T00:30:17.315Z,7.40
2019-03-15T00:34:22.435Z,7.41
2019-03-15T00:38:27.577Z,7.41
2019-03-15T00:42:32.680Z,7.39
2019-03-15T00:46:37.853Z,7.35
2019-03-15T00:50:42.966Z,7.30
2019-03-15T00:54:48.150Z,7.22
2019-03-15T00:58:53.242Z,7.26
2019-03-15T01:02:58.346Z,7.24
2019-03-15T01:07:03.464Z,7.22
2019-03-15T01:11:08.651Z,7.20
2019-03-15T01:15:14.062Z,7.18
2019-03-15T01:19:19.690Z,7.10
2019-03-15T01:23:24.888Z,7.10
2019-03-15T01:27:30.982Z,7.11
2019-03-15T01:31:36.093Z,7.09
2019-03-15T01:35:41.326Z,7.00
2019-03-15T01:39:46.793Z,7.00
2019-03-15T01:43:51.898Z,6.95
2019-03-15T01:47:59.646Z,6.93
2019-03-15T01:52:04.773Z,6.84
2019-03-15T01:56:09.967Z,6.75
2019-03-15T02:00:15.059Z,6.76
2019-03-15T02:04:20.159Z,6.88
2019-03-15T02:08:25.302Z,6.96
2019-03-15T02:12:30.472Z,6.99
2019-03-15T02:16:35.794Z,7.03
2019-03-15T02:20:40.896Z,7.03
2019-03-15T02:24:45.995Z,7.01
2019-03-15T02:28:51.163Z,7.00
2019-03-15T02:32:56.307Z,6.90
2019-03-15T02:37:01.481Z,6.88
2019-03-15T02:41:06.596Z,6.97
2019-03-15T02:45:11.758Z,7.07
2019-03-15T02:49:17.512Z,7.10
2019-03-15T02:53:22.645Z,7.11
2019-03-15T02:57:27.844Z,7.09
2019-03-15T03:01:34.258Z,7.09
2019-03-15T03:05:40.513Z,7.07
2019-03-15T03:09:45.704Z,7.11
2019-03-15T03:13:50.829Z,7.09
2019-03-15T03:17:55.959Z,7.18
2019-03-15T03:22:01.209Z,7.18
2019-03-15T03:26:07.257Z,7.16
2019-03-15T03:30:17.166Z,7.15
2019-03-15T03:34:22.259Z,7.17
2019-03-15T03:38:27.441Z,7.29
2019-03-15T03:42:32.659Z,7.16
2019-03-15T03:46:37.963Z,7.13
2019-03-15T03:50:43.517Z,7.24
2019-03-15T03:54:49.138Z,7.32
2019-03-15T03:58:54.266Z,7.28
2019-03-15T04:02:59.473Z,7.36
2019-03-15T04:07:04.796Z,7.36
2019-03-15T04:11:09.873Z,7.35
2019-03-15T04:15:14.968Z,7.36
2019-03-15T04:19:20.081Z,7.36
2019-03-15T04:23:25.242Z,7.42
2019-03-15T04:27:30.642Z,7.41
2019-03-15T04:31:35.705Z,7.33
2019-03-15T04:35:40.947Z,7.28
2019-03-15T04:39:46.056Z,7.33
2019-03-15T04:43:51.205Z,7.37
2019-03-15T04:47:56.486Z,7.30
2019-03-15T04:52:01.647Z,7.29
2019-03-15T04:56:06.808Z,7.27
2019-03-15T05:00:13.028Z,7.35
2019-03-15T05:04:18.224Z,7.34
2019-03-15T05:08:23.625Z,7.42
2019-03-15T05:12:28.949Z,7.33
2019-03-15T05:16:34.026Z,7.33
2019-03-15T05:20:39.250Z,7.26
2019-03-15T05:24:45.432Z,7.34
2019-03-15T05:28:50.575Z,7.26
2019-03-15T05:32:55.821Z,7.22
2019-03-15T05:37:00.945Z,7.28
2019-03-15T05:41:06.083Z,7.23
2019-03-15T05:45:11.183Z,7.15
2019-03-15T05:49:16.427Z,7.16
2019-03-15T05:53:21.562Z,7.05
2019-03-15T05:57:26.740Z,7.00
2019-03-15T06:01:31.950Z,6.90
2019-03-15T06:05:37.164Z,6.94
2019-03-15T06:09:42.617Z,6.81
2019-03-15T06:13:48.785Z,6.81
2019-03-15T06:17:55.770Z,6.79
2019-03-15T06:22:00.946Z,6.74
2019-03-15T06:26:06.076Z,6.80
2019-03-15T06:30:11.447Z,6.79
2019-03-15T06:34:16.546Z,6.76
2019-03-15T06:38:22.257Z,6.81
2019-03-15T06:42:27.455Z,6.84
2019-03-15T06:46:32.658Z,6.89
2019-03-15T06:50:37.818Z,6.84
2019-03-15T06:54:43.977Z,6.88
2019-03-15T06:58:49.084Z,6.90
2019-03-15T07:02:54.338Z,6.91
2019-03-15T07:06:59.473Z,6.87
2019-03-15T07:11:05.522Z,6.88
2019-03-15T07:15:10.801Z,6.94
2019-03-15T07:19:25.447Z,6.95
2019-03-15T07:23:22.891Z,6.99
2019-03-15T07:27:28.090Z,7.04
2019-03-15T07:31:33.312Z,7.11
2019-03-15T07:35:38.467Z,7.12
2019-03-15T07:39:44.863Z,7.20
2019-03-15T07:43:49.976Z,7.30
2019-03-15T07:47:56.974Z,7.46
2019-03-15T07:52:04.008Z,7.65
2019-03-15T07:56:08.897Z,7.85
2019-03-15T08:00:14.100Z,8.07
2019-03-15T08:04:21.797Z,8.12
2019-03-15T08:08:27.033Z,8.33
2019-03-15T08:12:32.190Z,8.44
2019-03-15T08:16:37.407Z,8.63
2019-03-15T08:20:42.635Z,8.74
2019-03-15T08:24:51.682Z,8.89
2019-03-15T08:28:56.681Z,8.99
2019-03-15T08:33:10.476Z,9.15
2019-03-15T08:37:18.584Z,9.22
2019-03-15T08:41:23.780Z,9.27
2019-03-15T08:45:29.392Z,9.45
2019-03-15T08:49:34.584Z,9.50
2019-03-15T08:53:39.746Z,9.59
2019-03-15T08:57:44.847Z,9.63
2019-03-15T09:01:50.014Z,9.67
2019-03-15T09:05:55.169Z,9.75
2019-03-15T09:10:03.255Z,9.85
2019-03-15T09:14:07.223Z,9.89
2019-03-15T09:18:12.486Z,9.94
2019-03-15T09:22:17.920Z,10.04
2019-03-15T09:26:23.100Z,10.03
2019-03-15T09:30:28.569Z,10.22
2019-03-15T09:34:33.763Z,10.22
2019-03-15T09:38:39.938Z,10.29
2019-03-15T09:42:45.153Z,10.31
2019-03-15T09:46:50.335Z,10.37
2019-03-15T09:50:56.320Z,10.37
2019-03-15T09:55:01.572Z,10.48
2019-03-15T09:59:09.117Z,10.50
2019-03-15T10:03:22.223Z,10.52
2019-03-15T10:07:21.211Z,10.53
2019-03-15T10:11:26.485Z,10.56
2019-03-15T10:15:31.660Z,10.58
2019-03-15T10:19:36.857Z,10.61
2019-03-15T10:23:42.003Z,10.58
2019-03-15T10:27:47.132Z,10.58
2019-03-15T10:31:53.320Z,10.57
2019-03-15T10:35:58.428Z,10.69
2019-03-15T10:40:05.792Z,10.69
2019-03-15T10:44:10.902Z,10.72
2019-03-15T10:48:24.990Z,10.74
2019-03-15T10:52:26.006Z,10.80
2019-03-15T10:56:31.394Z,10.87
2019-03-15T11:00:36.656Z,10.90
2019-03-15T11:04:43.842Z,10.96
2019-03-15T11:08:49.082Z,11.03
2019-03-15T11:12:54.182Z,11.16
2019-03-15T11:16:59.386Z,11.17
2019-03-15T11:21:04.488Z,11.21
2019-03-15T11:25:09.665Z,11.32
2019-03-15T11:29:15.078Z,11.35
2019-03-15T11:33:20.284Z,11.31
2019-03-15T11:37:25.842Z,11.21
2019-03-15T11:41:30.994Z,11.16
2019-03-15T11:45:36.301Z,11.16
2019-03-15T11:49:41.629Z,11.16
2019-03-15T11:53:46.761Z,11.19
2019-03-15T11:57:53.765Z,11.33
2019-03-15T12:02:03.902Z,11.38
2019-03-15T12:06:05.738Z,11.41
2019-03-15T12:10:10.980Z,11.40
2019-03-15T12:14:17.103Z,11.44
2019-03-15T12:18:23.276Z,11.46
2019-03-15T12:22:29.389Z,11.42
2019-03-15T12:26:40.197Z,11.44
2019-03-15T12:30:42.998Z,11.52
2019-03-15T12:34:48.442Z,11.50
2019-03-15T12:38:53.566Z,11.44
2019-03-15T12:42:58.689Z,11.49
2019-03-15T12:47:06.236Z,11.56
2019-03-15T12:51:12.535Z,11.53
2019-03-15T12:55:17.951Z,11.66
2019-03-15T12:59:24.193Z,11.72
2019-03-15T13:03:29.330Z,11.76
2019-03-15T13:07:34.585Z,11.80
2019-03-15T13:11:39.782Z,11.70
2019-03-15T13:15:44.974Z,11.62
2019-03-15T13:19:55.103Z,11.59
2019-03-15T13:23:57.000Z,11.56
2019-03-15T13:28:03.310Z,11.61
2019-03-15T13:32:08.531Z,11.63
2019-03-15T13:36:13.674Z,11.66
2019-03-15T13:40:18.853Z,11.67
2019-03-15T13:44:26.250Z,11.77
2019-03-15T13:48:30.906Z,11.78
2019-03-15T13:52:39.113Z,11.84
2019-03-15T13:56:44.515Z,11.85
2019-03-15T14:00:49.760Z,11.85
2019-03-15T14:04:54.887Z,11.96
2019-03-15T14:09:00.019Z,12.02
2019-03-15T14:13:05.204Z,12.15
2019-03-15T14:17:10.496Z,12.21
2019-03-15T14:21:15.696Z,12.20
2019-03-15T14:25:20.816Z,12.18
2019-03-15T14:29:26.045Z,12.16
2019-03-15T14:33:31.171Z,12.16
2019-03-15T14:37:36.428Z,12.06
2019-03-15T14:41:41.581Z,11.81
2019-03-15T14:45:46.897Z,11.69
2019-03-15T14:49:52.079Z,11.74
2019-03-15T14:53:57.231Z,11.78
2019-03-15T14:58:02.467Z,11.84
2019-03-15T15:02:07.652Z,11.85
2019-03-15T15:06:12.764Z,11.83
2019-03-15T15:10:18.042Z,11.73
2019-03-15T15:14:23.252Z,11.77
2019-03-15T15:18:28.365Z,11.65
2019-03-15T15:22:34.541Z,11.52
2019-03-15T15:26:39.687Z,11.31
2019-03-15T15:30:47.186Z,11.28
2019-03-15T15:34:56.112Z,11.13
2019-03-15T15:39:01.369Z,11.15
2019-03-15T15:43:07.992Z,11.15
2019-03-15T15:47:13.248Z,11.32
2019-03-15T15:51:19.453Z,11.37
2019-03-15T15:55:24.651Z,11.34
2019-03-15T15:59:29.912Z,10.97
2019-03-15T16:03:35.036Z,10.93
2019-03-15T16:07:40.391Z,10.89
2019-03-15T16:11:45.813Z,10.85
2019-03-15T16:15:50.971Z,10.93
2019-03-15T16:19:56.131Z,10.79
2019-03-15T16:24:01.265Z,10.69
2019-03-15T16:28:06.409Z,10.73
2019-03-15T16:32:11.582Z,10.74
2019-03-15T16:36:17.013Z,10.74
2019-03-15T16:40:22.110Z,10.74
2019-03-15T16:44:27.343Z,10.75
2019-03-15T16:48:32.568Z,10.70
2019-03-15T16:52:37.853Z,10.66
2019-03-15T16:56:43.086Z,10.69
2019-03-15T17:00:48.247Z,10.75
2019-03-15T17:04:53.489Z,10.62
2019-03-15T17:08:58.635Z,10.60
2019-03-15T17:13:04.114Z,10.57
2019-03-15T17:17:09.259Z,10.55
2019-03-15T17:21:14.451Z,10.58
2019-03-15T17:25:19.664Z,10.54
2019-03-15T17:29:24.844Z,10.54
2019-03-15T17:33:30.013Z,10.52
2019-03-15T17:37:35.136Z,10.52
2019-03-15T17:41:40.607Z,10.50
2019-03-15T17:45:47.445Z,10.51
2019-03-15T17:49:52.587Z,10.50
2019-03-15T17:53:57.772Z,10.52
2019-03-15T17:58:02.917Z,10.13
2019-03-15T18:02:08.179Z,10.07
2019-03-15T18:06:14.295Z,10.11
2019-03-15T18:10:19.424Z,10.10
2019-03-15T18:14:24.608Z,10.16
2019-03-15T18:18:29.862Z,10.29
2019-03-15T18:22:35.061Z,10.31
2019-03-15T18:26:40.215Z,10.17
2019-03-15T18:30:45.337Z,10.22
2019-03-15T18:34:50.531Z,10.18
2019-03-15T18:38:56.080Z,10.18
2019-03-15T18:43:01.240Z,10.13
2019-03-15T18:47:06.383Z,10.14
2019-03-15T18:51:11.485Z,10.11
2019-03-15T18:55:16.644Z,10.04
2019-03-15T18:59:21.783Z,10.09
2019-03-15T19:03:27.107Z,10.19
2019-03-15T19:07:32.511Z,10.22
2019-03-15T19:11:37.631Z,10.08
2019-03-15T19:15:45.833Z,10.17
2019-03-15T19:19:51.173Z,10.11
2019-03-15T19:23:56.339Z,10.01
2019-03-15T19:28:01.570Z,9.98
2019-03-15T19:32:06.697Z,9.97
2019-03-15T19:36:11.910Z,10.00
2019-03-15T19:40:17.237Z,10.01
2019-03-15T19:44:23.384Z,10.04
2019-03-15T19:48:28.567Z,9.96
2019-03-15T19:52:34.073Z,10.05
2019-03-15T19:56:39.211Z,9.82
2019-03-15T20:00:44.344Z,9.80
2019-03-15T20:04:49.547Z,9.83
2019-03-15T20:08:54.946Z,9.81
2019-03-15T20:13:02.631Z,9.86
2019-03-15T20:17:08.095Z,9.87
2019-03-15T20:21:14.045Z,9.83
2019-03-15T20:25:19.478Z,9.80
2019-03-15T20:29:24.998Z,9.83
2019-03-15T20:33:30.896Z,9.81
2019-03-15T20:37:36.270Z,9.79
2019-03-15T20:41:41.493Z,9.80
2019-03-15T20:45:46.634Z,9.81
2019-03-15T20:49:51.779Z,9.77
2019-03-15T20:53:56.894Z,9.79
2019-03-15T20:58:02.307Z,9.73
2019-03-15T21:02:07.779Z,9.74
2019-03-15T21:06:13.055Z,9.72
2019-03-15T21:10:18.295Z,9.72
2019-03-15T21:14:23.561Z,9.76
2019-03-15T21:18:28.913Z,9.70
2019-03-15T21:22:35.407Z,9.71
2019-03-15T21:26:40.506Z,9.67
2019-03-15T21:30:48.600Z,9.85
2019-03-15T21:34:52.535Z,9.79
2019-03-15T21:38:57.688Z,9.70
2019-03-15T21:43:02.883Z,9.68
2019-03-15T21:47:08.002Z,9.62
2019-03-15T21:51:14.644Z,9.63
2019-03-15T21:55:19.775Z,9.78
2019-03-15T21:59:24.964Z,9.59
2019-03-15T22:03:30.087Z,9.63
2019-03-15T22:07:35.599Z,9.72
2019-03-15T22:11:40.832Z,9.57
2019-03-15T22:15:45.955Z,9.58
2019-03-15T22:19:51.106Z,9.55
2019-03-15T22:23:56.230Z,9.59
2019-03-15T22:28:01.344Z,9.68
2019-03-15T22:32:06.547Z,9.69
2019-03-15T22:36:11.658Z,9.73
2019-03-15T22:40:17.766Z,9.67
2019-03-15T22:44:22.922Z,9.82
2019-03-15T22:48:28.099Z,9.83
2019-03-15T22:52:34.247Z,9.84
2019-03-15T22:56:39.715Z,9.66
2019-03-15T23:00:45.326Z,9.63
2019-03-15T23:04:52.149Z,9.63
2019-03-15T23:08:57.279Z,9.58
2019-03-15T23:13:02.441Z,9.62
2019-03-15T23:17:07.562Z,9.60
2019-03-15T23:21:12.710Z,9.68
2019-03-15T23:25:17.809Z,9.69
2019-03-15T23:29:22.967Z,9.55
2019-03-15T23:33:28.084Z,9.51
2019-03-15T23:37:33.202Z,9.40
2019-03-15T23:41:38.373Z,9.46
2019-03-15T23:45:45.616Z,9.32
2019-03-15T23:49:50.817Z,9.30
2019-03-15T23:53:56.898Z,9.17
2019-03-15T23:58:02.092Z,9.08
